createdAt,value
2022-11-23T00:00:06.128Z,99.99
2022-11-23T00:01:06.738Z,99.99
2022-11-23T00:02:06.138Z,99.99
2022-11-23T00:03:06.082Z,99.99
2022-11-23T00:04:06.071Z,99.99
2022-11-23T00:05:06.094Z,99.99
2022-11-23T00:06:06.050Z,99.99
2022-11-23T00:07:06.098Z,99.99
2022-11-23T00:08:06.197Z,99.99
2022-11-23T00:09:06.028Z,99.99
2022-11-23T00:10:06.050Z,99.99
2022-11-23T00:11:06.015Z,99.99
2022-11-23T00:12:06.002Z,99.99
2022-11-23T00:13:05.994Z,99.99
2022-11-23T00:14:05.989Z,99.99
2022-11-23T00:15:06.003Z,99.99
2022-11-23T00:16:05.969Z,99.99
2022-11-23T00:17:05.969Z,99.99
2022-11-23T00:18:05.957Z,99.99
2022-11-23T00:19:05.955Z,99.99
2022-11-23T00:20:05.974Z,99.99
2022-11-23T00:21:05.935Z,99.99
2022-11-23T00:22:05.930Z,99.99
2022-11-23T00:23:05.922Z,99.99
2022-11-23T00:24:05.910Z,99.99
2022-11-23T00:25:06.230Z,99.99
2022-11-23T00:26:05.893Z,99.99
2022-11-23T00:27:05.889Z,99.99
2022-11-23T00:28:05.880Z,99.99
2022-11-23T00:29:05.866Z,99.99
2022-11-23T00:30:05.890Z,99.99
2022-11-23T00:31:05.853Z,99.99
2022-11-23T00:32:05.847Z,99.99
2022-11-23T00:33:05.832Z,99.99
2022-11-23T00:34:05.825Z,99.99
2022-11-23T00:35:05.848Z,99.99
2022-11-23T00:36:05.822Z,99.99
2022-11-23T00:37:05.795Z,99.99
2022-11-23T00:38:05.797Z,99.99
2022-11-23T00:39:05.783Z,99.99
2022-11-23T00:40:05.808Z,99.99
2022-11-23T00:41:05.775Z,99.99
2022-11-23T00:42:05.763Z,99.99
2022-11-23T00:43:05.812Z,99.99
2022-11-23T00:44:05.737Z,99.99
2022-11-23T00:45:06.764Z,99.99
2022-11-23T00:46:05.747Z,99.99
2022-11-23T00:47:06.720Z,99.99
2022-11-23T00:48:05.777Z,99.99
2022-11-23T00:49:05.710Z,99.99
2022-11-23T00:50:05.724Z,99.99
2022-11-23T00:51:05.700Z,99.99
2022-11-23T00:52:05.716Z,99.99
2022-11-23T00:53:05.667Z,99.99
2022-11-23T00:54:05.685Z,99.99
2022-11-23T00:55:05.699Z,99.99
2022-11-23T00:56:05.689Z,99.99
2022-11-23T00:57:05.639Z,99.99
2022-11-23T00:58:05.632Z,99.99
2022-11-23T00:59:05.619Z,99.99
2022-11-23T01:00:05.647Z,99.99
2022-11-23T01:01:05.670Z,99.99
2022-11-23T01:02:05.597Z,99.99
2022-11-23T01:03:05.577Z,99.99
2022-11-23T01:04:06.666Z,99.99
2022-11-23T01:05:05.801Z,99.99
2022-11-23T01:06:05.562Z,99.99
2022-11-23T01:07:05.608Z,99.99
2022-11-23T01:08:05.559Z,99.99
2022-11-23T01:09:05.547Z,99.99
2022-11-23T01:10:05.611Z,99.99
2022-11-23T01:11:05.528Z,99.99
2022-11-23T01:12:05.534Z,99.99
2022-11-23T01:13:05.512Z,99.99
2022-11-23T01:14:05.498Z,99.99
2022-11-23T01:15:05.539Z,99.99
2022-11-23T01:16:06.496Z,99.99
2022-11-23T01:17:05.482Z,99.99
2022-11-23T01:18:05.483Z,99.99
2022-11-23T01:19:05.556Z,99.99
2022-11-23T01:20:05.495Z,99.99
2022-11-23T01:21:05.447Z,99.99
2022-11-23T01:22:05.524Z,99.99
2022-11-23T01:23:05.432Z,99.99
2022-11-23T01:24:05.425Z,99.99
2022-11-23T01:25:05.450Z,99.99
2022-11-23T01:26:05.445Z,99.99
2022-11-23T01:27:05.398Z,99.99
2022-11-23T01:28:05.398Z,99.99
2022-11-23T01:29:05.390Z,99.99
2022-11-23T01:30:05.412Z,99.99
2022-11-23T01:31:05.392Z,99.99
2022-11-23T01:32:05.360Z,99.99
2022-11-23T01:33:05.401Z,99.99
2022-11-23T01:34:05.432Z,99.99
2022-11-23T01:35:05.388Z,99.99
2022-11-23T01:36:05.330Z,99.99
2022-11-23T01:37:05.320Z,99.99
2022-11-23T01:38:05.313Z,99.99
2022-11-23T01:39:05.301Z,99.99
2022-11-23T01:40:05.442Z,99.99
2022-11-23T01:41:05.284Z,99.99
2022-11-23T01:42:05.269Z,99.99
2022-11-23T01:43:05.265Z,99.99
2022-11-23T01:44:05.262Z,99.99
2022-11-23T01:45:05.271Z,99.99
2022-11-23T01:46:05.248Z,99.99
2022-11-23T01:47:05.232Z,99.99
2022-11-23T01:48:05.237Z,99.87
2022-11-23T01:49:05.210Z,99.97
2022-11-23T01:50:05.229Z,99.99
2022-11-23T01:51:05.200Z,99.66
2022-11-23T01:52:06.196Z,99.77
2022-11-23T01:53:05.194Z,99.77
2022-11-23T01:54:05.169Z,99.87
2022-11-23T01:55:08.664Z,99.87
2022-11-23T01:56:06.168Z,99.99
2022-11-23T01:57:05.146Z,99.87
2022-11-23T01:58:05.146Z,99.87
2022-11-23T01:59:05.134Z,99.87
2022-11-23T02:00:05.195Z,99.77
2022-11-23T02:01:05.124Z,99.99
2022-11-23T02:02:05.114Z,99.97
2022-11-23T02:03:05.175Z,99.97
2022-11-23T02:04:05.091Z,99.66
2022-11-23T02:05:05.109Z,99.97
2022-11-23T02:06:05.073Z,99.87
2022-11-23T02:07:05.135Z,99.97
2022-11-23T02:08:05.065Z,99.99
2022-11-23T02:09:05.064Z,99.99
2022-11-23T02:10:05.078Z,99.99
2022-11-23T02:11:05.036Z,99.99
2022-11-23T02:12:05.028Z,99.99
2022-11-23T02:13:05.018Z,99.99
2022-11-23T02:14:05.015Z,99.97
2022-11-23T02:15:05.036Z,99.66
2022-11-23T02:16:04.996Z,99.66
2022-11-23T02:17:04.988Z,99.97
2022-11-23T02:18:05.029Z,99.77
2022-11-23T02:19:04.980Z,99.77
2022-11-23T02:20:05.003Z,99.99
2022-11-23T02:21:04.980Z,99.99
2022-11-23T02:22:04.946Z,99.66
2022-11-23T02:23:04.942Z,99.99
2022-11-23T02:24:04.936Z,99.77
2022-11-23T02:25:04.911Z,99.97
2022-11-23T02:26:05.948Z,99.66
2022-11-23T02:27:04.911Z,99.77
2022-11-23T02:28:04.900Z,99.99
2022-11-23T02:29:04.890Z,99.99
2022-11-23T02:30:04.881Z,99.77
2022-11-23T02:31:04.906Z,99.99
2022-11-23T02:32:04.858Z,99.99
2022-11-23T02:33:05.866Z,99.99
2022-11-23T02:34:04.855Z,99.99
2022-11-23T02:35:04.850Z,99.99
2022-11-23T02:36:04.862Z,99.99
2022-11-23T02:37:04.823Z,99.99
2022-11-23T02:38:04.841Z,99.99
2022-11-23T02:39:04.814Z,99.99
2022-11-23T02:40:04.967Z,99.99
2022-11-23T02:41:04.823Z,99.99
2022-11-23T02:42:04.784Z,99.99
2022-11-23T02:43:04.781Z,99.99
2022-11-23T02:44:04.779Z,99.99
2022-11-23T02:45:04.759Z,99.99
2022-11-23T02:46:04.790Z,99.99
2022-11-23T02:47:04.774Z,99.99
2022-11-23T02:48:04.744Z,99.99
2022-11-23T02:49:04.725Z,99.99
2022-11-23T02:50:04.746Z,99.99
2022-11-23T02:51:04.765Z,99.99
2022-11-23T02:52:04.705Z,99.99
2022-11-23T02:53:05.743Z,99.99
2022-11-23T02:54:04.688Z,99.99
2022-11-23T02:55:04.690Z,99.99
2022-11-23T02:56:04.742Z,99.99
2022-11-23T02:57:04.657Z,99.99
2022-11-23T02:58:04.676Z,99.99
2022-11-23T02:59:04.642Z,99.99
2022-11-23T03:00:04.638Z,99.99
2022-11-23T03:01:04.776Z,99.99
2022-11-23T03:02:04.623Z,99.99
2022-11-23T03:03:04.611Z,99.99
2022-11-23T03:04:04.600Z,99.99
2022-11-23T03:05:04.593Z,99.99
2022-11-23T03:06:04.611Z,99.99
2022-11-23T03:07:04.605Z,99.99
2022-11-23T03:08:04.570Z,99.99
2022-11-23T03:09:04.564Z,99.99
2022-11-23T03:10:04.552Z,99.66
2022-11-23T03:11:04.569Z,99.71
2022-11-23T03:12:04.543Z,99.99
2022-11-23T03:13:04.536Z,99.87
2022-11-23T03:14:04.521Z,99.99
2022-11-23T03:15:04.515Z,99.99
2022-11-23T03:16:04.546Z,99.99
2022-11-23T03:17:04.497Z,99.97
2022-11-23T03:18:04.485Z,99.99
2022-11-23T03:19:04.480Z,99.99
2022-11-23T03:20:04.462Z,99.99
2022-11-23T03:21:04.485Z,99.99
2022-11-23T03:22:04.452Z,99.99
2022-11-23T03:23:04.441Z,99.99
2022-11-23T03:24:04.431Z,99.99
2022-11-23T03:25:04.429Z,99.99
2022-11-23T03:26:07.363Z,99.99
2022-11-23T03:27:06.414Z,99.99
2022-11-23T03:28:04.403Z,99.99
2022-11-23T03:29:04.406Z,99.99
2022-11-23T03:30:04.399Z,99.87
2022-11-23T03:31:04.382Z,99.91
2022-11-23T03:32:04.400Z,99.99
2022-11-23T03:33:04.392Z,99.97
2022-11-23T03:34:04.372Z,99.77
2022-11-23T03:35:04.365Z,99.87
2022-11-23T03:36:04.344Z,99.66
2022-11-23T03:37:04.364Z,99.77
2022-11-23T03:38:04.328Z,99.99
2022-11-23T03:39:04.316Z,99.87
2022-11-23T03:40:04.303Z,99.66
2022-11-23T03:41:04.296Z,99.87
2022-11-23T03:42:04.318Z,99.77
2022-11-23T03:43:04.282Z,99.66
2022-11-23T03:44:04.266Z,99.66
2022-11-23T03:45:04.279Z,99.77
2022-11-23T03:46:04.247Z,99.87
2022-11-23T03:47:04.276Z,99.99
2022-11-23T03:48:04.238Z,99.56
2022-11-23T03:49:04.271Z,99.46
2022-11-23T03:50:04.220Z,99.66
2022-11-23T03:51:04.211Z,99.35
2022-11-23T03:52:04.311Z,99.35
2022-11-23T03:53:05.215Z,99.15
2022-11-23T03:54:04.185Z,99.46
2022-11-23T03:55:04.181Z,99.99
2022-11-23T03:56:04.167Z,99.25
2022-11-23T03:57:04.187Z,99.46
2022-11-23T03:58:04.158Z,99.56
2022-11-23T03:59:04.149Z,99.66
2022-11-23T04:00:04.142Z,99.87
2022-11-23T04:01:04.176Z,99.87
2022-11-23T04:02:04.142Z,99.87
2022-11-23T04:03:04.109Z,99.99
2022-11-23T04:04:04.105Z,99.91
2022-11-23T04:05:04.090Z,99.66
2022-11-23T04:06:04.091Z,99.56
2022-11-23T04:07:04.237Z,99.87
2022-11-23T04:08:04.078Z,99.91
2022-11-23T04:09:04.063Z,99.77
2022-11-23T04:10:04.056Z,99.87
2022-11-23T04:11:04.047Z,99.99
2022-11-23T04:12:04.081Z,99.97
2022-11-23T04:13:04.075Z,99.99
2022-11-23T04:14:04.029Z,99.99
2022-11-23T04:15:04.010Z,99.77
2022-11-23T04:16:04.002Z,99.99
2022-11-23T04:17:04.043Z,99.99
2022-11-23T04:18:03.994Z,99.99
2022-11-23T04:19:03.972Z,99.99
2022-11-23T04:20:03.969Z,99.99
2022-11-23T04:21:03.957Z,99.99
2022-11-23T04:22:03.987Z,99.99
2022-11-23T04:23:03.939Z,99.99
2022-11-23T04:24:03.947Z,99.99
2022-11-23T04:25:03.927Z,99.99
2022-11-23T04:26:03.921Z,99.99
2022-11-23T04:27:03.943Z,99.99
2022-11-23T04:28:03.900Z,99.99
2022-11-23T04:29:03.889Z,99.99
2022-11-23T04:30:03.902Z,99.99
2022-11-23T04:31:03.878Z,99.99
2022-11-23T04:32:03.894Z,99.99
2022-11-23T04:33:03.863Z,99.99
2022-11-23T04:34:03.853Z,99.99
2022-11-23T04:35:03.845Z,99.99
2022-11-23T04:36:03.833Z,99.99
2022-11-23T04:37:03.862Z,99.99
2022-11-23T04:38:03.819Z,99.99
2022-11-23T04:39:03.809Z,99.99
2022-11-23T04:40:03.816Z,99.99
2022-11-23T04:41:03.792Z,99.99
2022-11-23T04:42:03.816Z,99.99
2022-11-23T04:43:03.793Z,99.99
2022-11-23T04:44:03.853Z,99.99
2022-11-23T04:45:03.765Z,99.99
2022-11-23T04:46:03.750Z,99.99
2022-11-23T04:47:03.796Z,99.99
2022-11-23T04:48:03.752Z,99.99
2022-11-23T04:49:03.728Z,99.99
2022-11-23T04:50:03.730Z,99.99
2022-11-23T04:51:03.711Z,99.99
2022-11-23T04:52:03.746Z,99.99
2022-11-23T04:53:03.689Z,99.99
2022-11-23T04:54:03.698Z,99.99
2022-11-23T04:55:03.677Z,99.99
2022-11-23T04:56:03.679Z,99.99
2022-11-23T04:57:03.711Z,99.99
2022-11-23T04:58:03.657Z,99.99
2022-11-23T04:59:03.664Z,99.99
2022-11-23T05:00:03.641Z,99.99
2022-11-23T05:01:03.723Z,99.99
2022-11-23T05:02:03.657Z,99.99
2022-11-23T05:03:03.618Z,99.99
2022-11-23T05:04:03.620Z,99.99
2022-11-23T05:05:03.604Z,99.99
2022-11-23T05:06:03.591Z,99.99
2022-11-23T05:07:03.806Z,99.99
2022-11-23T05:08:03.578Z,99.99
2022-11-23T05:09:03.569Z,99.99
2022-11-23T05:10:03.577Z,99.99
2022-11-23T05:11:03.556Z,99.99
2022-11-23T05:12:03.569Z,99.99
2022-11-23T05:13:03.533Z,99.99
2022-11-23T05:14:03.530Z,99.99
2022-11-23T05:15:03.519Z,99.99
2022-11-23T05:16:03.510Z,99.99
2022-11-23T05:17:03.536Z,99.99
2022-11-23T05:18:03.491Z,99.99
2022-11-23T05:19:03.495Z,99.99
2022-11-23T05:20:03.482Z,99.99
2022-11-23T05:21:03.473Z,99.99
2022-11-23T05:22:03.495Z,99.99
2022-11-23T05:23:03.461Z,99.99
2022-11-23T05:24:03.444Z,99.99
2022-11-23T05:25:03.445Z,99.99
2022-11-23T05:26:03.425Z,99.99
2022-11-23T05:27:03.443Z,99.99
2022-11-23T05:28:11.419Z,99.99
2022-11-23T05:29:05.388Z,99.99
2022-11-23T05:30:03.436Z,99.99
2022-11-23T05:31:03.390Z,99.99
2022-11-23T05:32:03.434Z,99.99
2022-11-23T05:33:03.370Z,99.99
2022-11-23T05:34:04.365Z,99.99
2022-11-23T05:35:03.350Z,99.99
2022-11-23T05:36:03.341Z,99.99
2022-11-23T05:37:03.368Z,99.99
2022-11-23T05:38:03.321Z,99.99
2022-11-23T05:39:03.313Z,99.99
2022-11-23T05:40:03.313Z,99.99
2022-11-23T05:41:03.290Z,99.99
2022-11-23T05:42:03.323Z,99.99
2022-11-23T05:43:03.284Z,99.99
2022-11-23T05:44:03.277Z,99.99
2022-11-23T05:45:07.409Z,99.99
2022-11-23T05:46:04.252Z,99.99
2022-11-23T05:47:03.280Z,99.99
2022-11-23T05:48:03.236Z,99.99
2022-11-23T05:49:03.265Z,99.99
2022-11-23T05:50:03.226Z,99.99
2022-11-23T05:51:05.475Z,99.99
2022-11-23T05:52:04.249Z,99.99
2022-11-23T05:53:03.197Z,99.99
2022-11-23T05:54:03.186Z,99.99
2022-11-23T05:55:03.189Z,99.99
2022-11-23T05:56:03.174Z,99.99
2022-11-23T05:57:03.201Z,99.99
2022-11-23T05:58:03.156Z,99.99
2022-11-23T05:59:03.175Z,99.99
2022-11-23T06:00:03.151Z,99.99
2022-11-23T06:01:03.138Z,99.99
2022-11-23T06:02:03.203Z,99.99
2022-11-23T06:03:03.120Z,99.99
2022-11-23T06:04:03.155Z,99.99
2022-11-23T06:05:03.154Z,99.99
2022-11-23T06:06:03.154Z,99.99
2022-11-23T06:07:03.312Z,99.99
2022-11-23T06:08:03.087Z,99.99
2022-11-23T06:09:03.071Z,99.99
2022-11-23T06:10:03.057Z,99.99
2022-11-23T06:11:03.053Z,99.99
2022-11-23T06:12:03.312Z,99.99
2022-11-23T06:13:03.041Z,99.99
2022-11-23T06:14:03.030Z,99.99
2022-11-23T06:15:03.027Z,99.99
2022-11-23T06:16:03.015Z,99.99
2022-11-23T06:17:03.091Z,99.99
2022-11-23T06:18:02.990Z,99.99
2022-11-23T06:19:02.988Z,99.99
2022-11-23T06:20:02.975Z,99.99
2022-11-23T06:21:03.975Z,99.99
2022-11-23T06:22:02.963Z,99.99
2022-11-23T06:23:02.979Z,99.99
2022-11-23T06:24:02.940Z,99.99
2022-11-23T06:25:02.943Z,99.99
2022-11-23T06:26:02.933Z,99.99
2022-11-23T06:27:02.929Z,99.99
2022-11-23T06:28:02.949Z,99.99
2022-11-23T06:29:02.907Z,99.99
2022-11-23T06:30:02.903Z,99.99
2022-11-23T06:31:02.907Z,99.99
2022-11-23T06:32:02.894Z,99.99
2022-11-23T06:33:02.905Z,99.99
2022-11-23T06:34:02.860Z,99.99
2022-11-23T06:35:02.851Z,99.99
2022-11-23T06:36:02.855Z,99.99
2022-11-23T06:37:02.851Z,99.99
2022-11-23T06:38:02.860Z,99.99
2022-11-23T06:39:02.824Z,99.99
2022-11-23T06:40:02.828Z,99.99
2022-11-23T06:41:02.812Z,99.99
2022-11-23T06:42:30.987Z,99.99
2022-11-23T06:43:04.822Z,99.99
2022-11-23T06:44:02.781Z,99.99
2022-11-23T06:45:02.781Z,99.99
2022-11-23T06:46:02.764Z,99.99
2022-11-23T06:47:02.760Z,99.99
2022-11-23T06:48:03.789Z,99.99
2022-11-23T06:49:02.755Z,99.99
2022-11-23T06:50:02.761Z,99.99
2022-11-23T06:51:02.744Z,99.99
2022-11-23T06:52:02.722Z,99.99
2022-11-23T06:53:02.754Z,99.99
2022-11-23T06:54:02.706Z,99.99
2022-11-23T06:55:02.702Z,99.99
2022-11-23T06:56:02.702Z,99.99
2022-11-23T06:57:02.679Z,99.99
2022-11-23T06:58:02.702Z,99.99
2022-11-23T06:59:02.661Z,99.99
2022-11-23T07:00:02.657Z,99.99
2022-11-23T07:01:02.713Z,99.99
2022-11-23T07:02:02.638Z,99.99
2022-11-23T07:03:02.656Z,99.99
2022-11-23T07:04:02.623Z,99.99
2022-11-23T07:05:02.615Z,99.99
2022-11-23T07:06:02.620Z,99.99
2022-11-23T07:07:02.592Z,99.99
2022-11-23T07:08:03.622Z,99.99
2022-11-23T07:09:02.578Z,99.99
2022-11-23T07:10:06.804Z,99.99
2022-11-23T07:11:03.568Z,99.99
2022-11-23T07:12:02.559Z,99.99
2022-11-23T07:13:02.573Z,99.99
2022-11-23T07:14:02.540Z,99.99
2022-11-23T07:15:02.547Z,99.99
2022-11-23T07:16:02.525Z,99.99
2022-11-23T07:17:02.519Z,99.99
2022-11-23T07:18:02.651Z,99.99
2022-11-23T07:19:02.503Z,99.99
2022-11-23T07:20:02.565Z,99.99
2022-11-23T07:21:02.478Z,99.99
2022-11-23T07:22:03.482Z,99.99
2022-11-23T07:23:02.734Z,99.99
2022-11-23T07:24:02.462Z,99.99
2022-11-23T07:25:02.464Z,99.99
2022-11-23T07:26:02.448Z,99.99
2022-11-23T07:27:02.454Z,99.99
2022-11-23T07:28:02.465Z,99.99
2022-11-23T07:29:02.439Z,99.99
2022-11-23T07:30:02.437Z,99.99
2022-11-23T07:31:02.408Z,99.99
2022-11-23T07:32:02.401Z,99.99
2022-11-23T07:33:02.423Z,99.99
2022-11-23T07:34:02.378Z,99.99
2022-11-23T07:35:02.398Z,99.99
2022-11-23T07:36:02.361Z,99.99
2022-11-23T07:37:02.479Z,99.99
2022-11-23T07:38:02.381Z,99.99
2022-11-23T07:39:02.334Z,99.99
2022-11-23T07:40:02.705Z,99.99
2022-11-23T07:41:02.359Z,99.99
2022-11-23T07:42:30.913Z,99.99
2022-11-23T07:43:04.354Z,99.99
2022-11-23T07:44:02.312Z,99.99
2022-11-23T07:45:02.292Z,99.99
2022-11-23T07:46:02.281Z,99.99
2022-11-23T07:47:02.284Z,99.99
2022-11-23T07:48:02.326Z,99.99
2022-11-23T07:49:02.272Z,99.99
2022-11-23T07:50:02.247Z,99.99
2022-11-23T07:51:02.309Z,99.99
2022-11-23T07:52:02.238Z,99.99
2022-11-23T07:53:02.276Z,99.99
2022-11-23T07:54:02.225Z,99.99
2022-11-23T07:55:02.214Z,99.99
2022-11-23T07:56:02.203Z,99.77
2022-11-23T07:57:02.209Z,99.67
2022-11-23T07:58:02.227Z,99.99
2022-11-23T07:59:02.223Z,99.01
2022-11-23T08:00:02.175Z,99.47
2022-11-23T08:01:02.160Z,98.80
2022-11-23T08:02:02.227Z,98.91
2022-11-23T08:03:26.700Z,98.29
2022-11-23T08:04:04.165Z,97.78
2022-11-23T08:05:02.137Z,97.78
2022-11-23T08:06:02.122Z,97.88
2022-11-23T08:07:02.118Z,98.39
2022-11-23T08:08:02.131Z,97.57
2022-11-23T08:09:02.144Z,97.99
2022-11-23T08:10:02.103Z,97.99
2022-11-23T08:11:03.094Z,97.37
2022-11-23T08:12:02.085Z,96.81
2022-11-23T08:13:02.073Z,95.39
2022-11-23T08:14:02.090Z,93.62
2022-11-23T08:15:02.053Z,90.53
2022-11-23T08:16:02.047Z,88.67
2022-11-23T08:17:02.039Z,85.84
2022-11-23T08:18:02.027Z,83.62
2022-11-23T08:19:02.045Z,83.11
2022-11-23T08:20:02.051Z,82.70
2022-11-23T08:21:01.998Z,82.29
2022-11-23T08:22:01.992Z,82.46
2022-11-23T08:23:01.983Z,80.31
2022-11-23T08:24:02.004Z,77.93
2022-11-23T08:25:01.961Z,76.20
2022-11-23T08:26:01.955Z,74.30
2022-11-23T08:27:01.949Z,75.15
2022-11-23T08:28:01.954Z,73.70
2022-11-23T08:29:01.958Z,73.29
2022-11-23T08:30:01.931Z,72.24
2022-11-23T08:31:01.919Z,71.73
2022-11-23T08:32:01.924Z,72.81
2022-11-23T08:33:01.905Z,72.28
2022-11-23T08:34:03.761Z,71.70
2022-11-23T08:35:02.884Z,72.41
2022-11-23T08:36:01.876Z,71.73
2022-11-23T08:37:01.866Z,73.73
2022-11-23T08:38:01.860Z,73.29
2022-11-23T08:39:01.886Z,71.77
2022-11-23T08:40:01.844Z,71.20
2022-11-23T08:41:01.829Z,71.00
2022-11-23T08:42:01.819Z,70.86
2022-11-23T08:43:01.832Z,71.64
2022-11-23T08:44:01.839Z,71.91
2022-11-23T08:45:01.800Z,70.89
2022-11-23T08:46:05.589Z,71.16
2022-11-23T08:47:03.789Z,70.86
2022-11-23T08:48:01.809Z,71.97
2022-11-23T08:49:01.790Z,75.36
2022-11-23T08:50:01.759Z,76.51
2022-11-23T08:51:01.755Z,74.04
2022-11-23T08:52:01.742Z,74.34
2022-11-23T08:53:01.737Z,76.61
2022-11-23T08:54:01.771Z,77.29
2022-11-23T08:55:01.803Z,79.10
2022-11-23T08:56:01.709Z,78.66
2022-11-23T08:57:01.702Z,77.87
2022-11-23T08:58:01.713Z,79.27
2022-11-23T08:59:01.709Z,78.92
2022-11-23T09:00:01.676Z,78.82
2022-11-23T09:01:01.675Z,78.35
2022-11-23T09:02:01.694Z,79.64
2022-11-23T09:03:01.641Z,77.53
2022-11-23T09:04:02.676Z,76.10
2022-11-23T09:05:01.638Z,77.50
2022-11-23T09:06:01.617Z,77.43
2022-11-23T09:07:02.643Z,74.30
2022-11-23T09:08:01.624Z,71.44
2022-11-23T09:09:01.628Z,69.95
2022-11-23T09:10:01.592Z,70.12
2022-11-23T09:11:01.592Z,67.97
2022-11-23T09:12:01.575Z,67.49
2022-11-23T09:13:01.576Z,71.88
2022-11-23T09:14:01.598Z,74.41
2022-11-23T09:15:01.547Z,73.63
2022-11-23T09:16:01.543Z,72.21
2022-11-23T09:17:01.540Z,72.75
2022-11-23T09:18:01.520Z,70.69
2022-11-23T09:19:01.552Z,70.96
2022-11-23T09:20:01.525Z,74.04
2022-11-23T09:21:01.505Z,75.49
2022-11-23T09:22:01.514Z,77.09
2022-11-23T09:23:01.521Z,77.94
2022-11-23T09:24:01.508Z,78.15
2022-11-23T09:25:01.567Z,78.80
2022-11-23T09:26:01.469Z,78.69
2022-11-23T09:27:01.458Z,79.44
2022-11-23T09:28:01.450Z,80.13
2022-11-23T09:29:01.516Z,81.53
2022-11-23T09:30:01.435Z,81.84
2022-11-23T09:31:01.437Z,81.84
2022-11-23T09:32:01.423Z,82.49
2022-11-23T09:33:01.421Z,83.20
2022-11-23T09:34:01.431Z,83.92
2022-11-23T09:35:01.410Z,83.40
2022-11-23T09:36:01.418Z,84.63
2022-11-23T09:37:01.374Z,83.92
2022-11-23T09:38:01.368Z,84.01
2022-11-23T09:39:01.391Z,83.16
2022-11-23T09:40:01.350Z,82.31
2022-11-23T09:41:01.340Z,82.71
2022-11-23T09:42:01.332Z,82.68
2022-11-23T09:43:01.342Z,81.86
2022-11-23T09:44:01.354Z,81.86
2022-11-23T09:45:01.325Z,80.94
2022-11-23T09:46:01.303Z,81.70
2022-11-23T09:47:01.284Z,82.71
2022-11-23T09:48:01.283Z,82.75
2022-11-23T09:49:01.270Z,83.92
2022-11-23T09:50:01.330Z,84.33
2022-11-23T09:51:01.304Z,84.26
2022-11-23T09:52:01.259Z,84.91
2022-11-23T09:53:02.239Z,85.53
2022-11-23T09:54:01.264Z,86.18
2022-11-23T09:55:01.226Z,87.30
2022-11-23T09:56:01.218Z,87.20
2022-11-23T09:57:02.075Z,87.20
2022-11-23T09:58:02.200Z,87.20
2022-11-23T09:59:01.195Z,87.47
2022-11-23T10:00:01.213Z,86.35
2022-11-23T10:01:01.193Z,85.49
2022-11-23T10:02:01.239Z,85.14
2022-11-23T10:03:01.155Z,84.59
2022-11-23T10:04:01.146Z,82.47
2022-11-23T10:05:01.177Z,82.13
2022-11-23T10:06:01.159Z,81.45
2022-11-23T10:07:01.130Z,82.61
2022-11-23T10:08:01.127Z,82.96
2022-11-23T10:09:01.152Z,84.53
2022-11-23T10:10:01.165Z,84.57
2022-11-23T10:11:01.090Z,85.02
2022-11-23T10:12:01.085Z,86.04
2022-11-23T10:13:01.072Z,85.83
2022-11-23T10:14:01.078Z,86.24
2022-11-23T10:15:01.084Z,86.35
2022-11-23T10:16:01.043Z,86.49
2022-11-23T10:17:01.043Z,87.30
2022-11-23T10:18:01.044Z,87.20
2022-11-23T10:19:01.025Z,87.85
2022-11-23T10:20:01.055Z,87.55
2022-11-23T10:21:01.032Z,87.76
2022-11-23T10:22:00.997Z,88.17
2022-11-23T10:23:00.987Z,88.57
2022-11-23T10:24:00.975Z,89.50
2022-11-23T10:25:00.999Z,89.09
2022-11-23T10:26:00.959Z,89.43
2022-11-23T10:27:00.949Z,88.92
2022-11-23T10:28:00.951Z,88.92
2022-11-23T10:29:00.943Z,89.27
2022-11-23T10:30:00.967Z,89.37
2022-11-23T10:31:00.921Z,89.43
2022-11-23T10:32:00.920Z,89.59
2022-11-23T10:33:00.920Z,89.39
2022-11-23T10:34:00.891Z,88.47
2022-11-23T10:35:00.919Z,88.88
2022-11-23T10:36:00.925Z,88.98
2022-11-23T10:37:00.945Z,88.88
2022-11-23T10:38:01.900Z,89.39
2022-11-23T10:39:00.862Z,88.98
2022-11-23T10:40:00.872Z,88.78
2022-11-23T10:41:01.846Z,89.09
2022-11-23T10:42:00.829Z,89.33
2022-11-23T10:43:00.833Z,88.82
2022-11-23T10:44:00.815Z,89.47
2022-11-23T10:45:00.864Z,89.74
2022-11-23T10:46:00.803Z,89.37
2022-11-23T10:47:00.797Z,89.98
2022-11-23T10:48:01.821Z,89.17
2022-11-23T10:49:00.784Z,90.50
2022-11-23T10:50:00.765Z,89.47
2022-11-23T10:51:01.790Z,89.98
2022-11-23T10:52:00.755Z,89.68
2022-11-23T10:53:00.741Z,89.74
2022-11-23T10:54:04.883Z,89.43
2022-11-23T10:55:01.731Z,89.98
2022-11-23T10:56:00.756Z,89.84
2022-11-23T10:57:00.712Z,89.47
2022-11-23T10:58:00.708Z,89.43
2022-11-23T10:59:00.708Z,89.33
2022-11-23T11:00:00.697Z,89.78
2022-11-23T11:01:00.714Z,89.53
2022-11-23T11:02:00.752Z,88.92
2022-11-23T11:03:00.665Z,89.23
2022-11-23T11:04:00.660Z,89.09
2022-11-23T11:05:00.653Z,88.78
2022-11-23T11:06:09.949Z,89.09
2022-11-23T11:07:02.639Z,89.74
2022-11-23T11:08:00.625Z,88.26
2022-11-23T11:09:03.555Z,88.37
2022-11-23T11:10:01.607Z,87.96
2022-11-23T11:11:00.634Z,88.12
2022-11-23T11:12:00.600Z,87.47
2022-11-23T11:13:00.586Z,86.90
2022-11-23T11:14:00.575Z,87.51
2022-11-23T11:15:10.396Z,87.30
2022-11-23T11:16:02.592Z,86.44
2022-11-23T11:17:00.554Z,86.29
2022-11-23T11:18:00.545Z,85.73
2022-11-23T11:19:00.536Z,86.29
2022-11-23T11:20:00.534Z,86.35
2022-11-23T11:21:00.569Z,86.24
2022-11-23T11:22:00.552Z,85.79
2022-11-23T11:23:00.506Z,85.79
2022-11-23T11:24:00.496Z,85.69
2022-11-23T11:25:00.488Z,85.69
2022-11-23T11:26:00.587Z,84.94
2022-11-23T11:27:00.479Z,83.92
2022-11-23T11:28:00.477Z,84.94
2022-11-23T11:29:00.455Z,85.00
2022-11-23T11:30:00.453Z,83.78
2022-11-23T11:31:00.457Z,84.80
2022-11-23T11:32:00.457Z,84.80
2022-11-23T11:33:00.417Z,84.08
2022-11-23T11:34:00.415Z,83.43
2022-11-23T11:35:00.409Z,83.33
2022-11-23T11:36:00.405Z,82.51
2022-11-23T11:37:00.418Z,82.51
2022-11-23T11:38:00.381Z,82.41
2022-11-23T11:39:18.883Z,82.51
2022-11-23T11:40:02.403Z,81.59
2022-11-23T11:41:00.353Z,82.71
2022-11-23T11:42:00.379Z,81.90
2022-11-23T11:43:00.371Z,81.80
2022-11-23T11:44:00.343Z,81.59
2022-11-23T11:45:00.327Z,81.41
2022-11-23T11:46:21.798Z,80.49
2022-11-23T11:47:02.346Z,75.70
2022-11-23T11:48:00.310Z,72.04
2022-11-23T11:49:00.290Z,71.50
2022-11-23T11:50:00.324Z,70.39
2022-11-23T11:51:00.270Z,67.83
2022-11-23T11:52:00.402Z,67.23
2022-11-23T11:53:00.256Z,65.88
2022-11-23T11:54:00.280Z,64.64
2022-11-23T11:55:00.234Z,64.58
2022-11-23T11:56:00.244Z,63.24
2022-11-23T11:57:00.296Z,63.30
2022-11-23T11:58:00.239Z,64.07
2022-11-23T11:59:00.241Z,63.03
2022-11-23T12:00:00.200Z,65.77
2022-11-23T12:01:00.188Z,69.37
2022-11-23T12:02:00.212Z,71.06
2022-11-23T12:03:00.225Z,71.91
2022-11-23T12:04:00.160Z,72.17
2022-11-23T12:05:00.166Z,70.86
2022-11-23T12:06:00.155Z,67.83
2022-11-23T12:07:00.339Z,65.44
2022-11-23T12:08:00.204Z,64.70
2022-11-23T12:09:00.124Z,64.00
2022-11-23T12:10:00.124Z,65.07
2022-11-23T12:11:00.107Z,64.00
2022-11-23T12:12:00.345Z,64.00
2022-11-23T12:13:00.085Z,62.65
2022-11-23T12:14:00.086Z,62.43
2022-11-23T12:15:00.072Z,61.72
2022-11-23T12:16:00.072Z,61.66
2022-11-23T12:17:30.871Z,60.93
2022-11-23T12:18:02.048Z,58.75
2022-11-23T12:19:00.044Z,58.01
2022-11-23T12:20:00.030Z,59.24
2022-11-23T12:21:00.030Z,59.04
2022-11-23T12:22:00.157Z,59.14
2022-11-23T12:23:00.000Z,59.64
2022-11-23T12:23:59.994Z,58.94
2022-11-23T12:24:59.988Z,59.73
2022-11-23T12:25:59.976Z,61.40
2022-11-23T12:27:00.003Z,61.55
2022-11-23T12:27:59.962Z,60.81
2022-11-23T12:28:59.968Z,59.70
2022-11-23T12:29:59.948Z,59.73
2022-11-23T12:30:59.939Z,61.56
2022-11-23T12:31:59.940Z,62.04
2022-11-23T12:32:59.960Z,62.87
2022-11-23T12:33:59.917Z,64.55
2022-11-23T12:34:59.944Z,62.98
2022-11-23T12:35:59.889Z,62.28
2022-11-23T12:36:59.897Z,60.58
2022-11-23T12:38:00.133Z,60.58
2022-11-23T12:38:59.875Z,61.68
2022-11-23T12:39:59.868Z,60.41
2022-11-23T12:40:59.855Z,60.53
2022-11-23T12:41:59.851Z,60.31
2022-11-23T12:42:59.863Z,60.51
2022-11-23T12:43:59.831Z,60.00
2022-11-23T12:44:59.815Z,60.51
2022-11-23T12:45:59.812Z,60.00
2022-11-23T12:46:59.798Z,60.66
2022-11-23T12:47:59.823Z,61.40
2022-11-23T12:48:59.786Z,60.53
2022-11-23T12:49:59.778Z,59.80
2022-11-23T12:50:59.786Z,60.36
2022-11-23T12:51:59.760Z,61.14